LIRPLEGE

Guest
Details From LIRP - Pisa
To LEGE - Girona
Flight Number -
Tags Generated
Created
Modified
Stats Distance 353 nm / 653 km
Max Altitude 0 ft / 0 m
Waypoints 3
Social Downloads 0
Likes 0
Share VATSIM

Download

Looking for another format? Having issues loading an existing format? Contact us
Advertisement - Login to hide

Notes

Generated

Route

LIRP BGRNB LEGE

ID Type Via Altitude Latitude Longitude Leg Dist Tot Dist Heading (true) Name
O LIRP APT - 0 ft / 0 m 43.67384˚ 10.38072˚ - 0 nm - -
BGRNB FIX - 0 ft / 0 m 41.95151˚ 3.20308˚ 332 nm 332 nm 254° / 249° -
O LEGE APT - 0 ft / 0 m 41.89491˚ 2.75826˚ 20 nm 352 nm 260° / 260° -

Altitude Profile

Advertisement - Login to hide

Weather


0- 5 10 15 20 25 30 35+ Temperature / ° C

Clouds and Precipitation
Forecast for 2017-12-11 00:00 UTC. Updated an hour ago

Ground ~20,000 ft ~40,000 ft Winds

LIRP

Details ICAO LIRP (PSA)
Name PISA
Region Italy
Timezone Europe/Rome (UTC+1.0)
Stats Elevation 6 ft / 2 m (AMSL)
Location 43.683883° 10.392724°
Runways 2
Magnetic Variation 2.702° E

METAR

LIRP 102345Z 21013KT 9999 SCT020 BKN040 13/12 Q1002 TEMPO 22015G27KT

Decode

TAF

TAF LIRP 102300Z 1100/1124 20015KT 5000 RA SCT020 BKN035 TEMPO 1100/1118 22015G25KT PROB40 TEMPO 1102/1112 4000 SHRA FEW010CB BKN025 BECMG 1119/1121 17013KT 5000 BR SCT015 BKN030

Decode

Departure Runways

ID Width Length Bearing (true) Bearing (mag) Surface Threshold Offset Overrun Length
04L 141 ft / 43 m 9,158 ft / 2,791 m 36.70° 34.00° Asphalt 979 ft / 298 m 0 ft / 0 m
04R 148 ft / 45 m 9,819 ft / 2,993 m 36.72° 34.02° Asphalt 490 ft / 149 m 0 ft / 0 m
22L 148 ft / 45 m 9,819 ft / 2,993 m 216.73° 214.03° Asphalt 843 ft / 257 m 0 ft / 0 m
22R 141 ft / 43 m 9,158 ft / 2,791 m 216.72° 214.02° Asphalt 0 ft / 0 m 0 ft / 0 m

LEGE

Details ICAO LEGE (GRO)
Name Girona
Region Spain
Timezone Europe/Madrid (UTC+1.0)
Stats Elevation 403 ft / 123 m (AMSL)
Location 41.905202° 2.762133°
Runways 1
Magnetic Variation 0.976° E

METAR

LEGE 110000Z 21017KT 9999 FEW040 SCT055 14/06 Q0992

Decode

TAF

TAF AMD TAF AMD LEGE 110029Z 1100/1124 21012KT 9999 FEW030 TX16/1113Z TN05/1124Z TEMPO 1100/1111 22020G34KT PROB30 TEMPO 1104/1111 20022G43KT TEMPO 1112/1119 4000 RA BECMG 1110/1113 VRB04KT

Decode

Destination Runways

ID Width Length Bearing (true) Bearing (mag) Surface Threshold Offset Overrun Length
02 148 ft / 45 m 7,880 ft / 2,402 m 15.50° 14.52° Asphalt 0 ft / 0 m 210 ft / 64 m
20 148 ft / 45 m 7,880 ft / 2,402 m 195.50° 194.52° Asphalt 0 ft / 0 m 200 ft / 61 m

Approach Navaids

Runway Type Ident Frequency Range Bearing (true) Bearing (mag) Slope Elevation
20 Localiser IGN 109.90 MHz 18 nm / 33 km 195.60° 194.62° - 468 ft / 143 m (AMSL)
20 Glidescope IGN 109.90 MHz 10 nm / 19 km 195.50° 194.52° 3.00° 403 ft / 123 m (AMSL)
20 DME IGN 109.90 MHz 18 nm / 33 km - - - 463 ft / 141 m (AMSL)

Popular Alternatives